createdAt,value
2022-12-18T00:01:26.022Z,5.63
2022-12-18T00:03:54.690Z,5.93
2022-12-18T00:06:23.186Z,6.13
2022-12-18T00:08:51.913Z,5.85
2022-12-18T00:11:21.419Z,5.32
2022-12-18T00:13:49.349Z,5.30
2022-12-18T00:16:21.773Z,5.93
2022-12-18T00:18:50.720Z,5.60
2022-12-18T00:21:18.907Z,5.47
2022-12-18T00:23:47.259Z,5.75
2022-12-18T00:26:23.129Z,5.50
2022-12-18T00:28:53.890Z,5.40
2022-12-18T00:31:24.785Z,5.03
2022-12-18T00:33:57.137Z,5.10
2022-12-18T00:36:26.667Z,6.20
2022-12-18T00:38:58.902Z,5.72
2022-12-18T00:41:45.821Z,6.35
2022-12-18T00:44:15.196Z,6.00
2022-12-18T00:46:43.634Z,6.22
2022-12-18T00:49:14.205Z,6.25
2022-12-18T00:51:41.667Z,7.20
2022-12-18T00:54:08.882Z,7.25
2022-12-18T00:56:48.074Z,7.10
2022-12-18T00:59:19.074Z,7.05
2022-12-18T01:01:47.621Z,7.53
2022-12-18T01:04:15.457Z,7.25
2022-12-18T01:06:46.002Z,6.57
2022-12-18T01:09:13.292Z,7.05
2022-12-18T01:11:40.497Z,7.25
2022-12-18T01:14:07.757Z,7.65
2022-12-18T01:16:34.912Z,7.53
2022-12-18T01:19:02.058Z,7.15
2022-12-18T01:21:29.197Z,7.55
2022-12-18T01:23:57.655Z,7.57
2022-12-18T01:26:26.167Z,7.40
2022-12-18T01:28:55.478Z,7.32
2022-12-18T01:31:30.457Z,7.22
2022-12-18T01:33:58.460Z,8.65
2022-12-18T01:36:29.517Z,6.75
2022-12-18T01:38:57.904Z,7.03
2022-12-18T01:41:27.541Z,6.93
2022-12-18T01:43:58.191Z,7.88
2022-12-18T01:46:27.103Z,8.25
2022-12-18T01:49:00.576Z,7.25
2022-12-18T01:51:31.450Z,7.40
2022-12-18T01:53:59.995Z,7.50
2022-12-18T01:56:27.701Z,7.75
2022-12-18T01:59:04.172Z,7.88
2022-12-18T02:01:33.343Z,7.70
2022-12-18T02:04:26.262Z,11.10
2022-12-18T02:07:30.820Z,8.73
2022-12-18T02:10:11.777Z,9.68
2022-12-18T02:13:05.844Z,8.43
2022-12-18T02:15:40.269Z,9.75
2022-12-18T02:18:15.028Z,9.43
2022-12-18T02:20:48.869Z,9.57
2022-12-18T02:26:07.483Z,9.45
2022-12-18T02:28:41.055Z,8.63
2022-12-18T02:31:14.388Z,8.23
2022-12-18T02:33:44.177Z,9.25
2022-12-18T02:36:13.873Z,8.98
2022-12-18T02:38:44.957Z,7.85
2022-12-18T02:41:16.822Z,8.65
2022-12-18T02:43:56.382Z,8.82
2022-12-18T02:46:33.335Z,8.63
2022-12-18T02:49:24.343Z,9.05
2022-12-18T02:51:56.367Z,7.28
2022-12-18T02:54:23.828Z,9.20
2022-12-18T02:56:57.056Z,9.55
2022-12-18T02:59:59.341Z,8.02
2022-12-18T03:02:47.566Z,8.10
2022-12-18T03:05:25.862Z,7.68
2022-12-18T03:07:59.464Z,8.00
2022-12-18T03:10:33.162Z,8.60
2022-12-18T03:13:22.951Z,7.72
2022-12-18T03:15:56.848Z,7.75
2022-12-18T03:18:33.807Z,7.90
2022-12-18T03:21:06.405Z,7.95
2022-12-18T03:23:42.086Z,9.38
2022-12-18T03:26:15.669Z,7.45
2022-12-18T03:29:00.782Z,6.65
2022-12-18T03:31:31.703Z,7.25
2022-12-18T03:34:02.174Z,7.57
2022-12-18T03:36:38.821Z,8.13
2022-12-18T03:39:06.649Z,7.90
2022-12-18T03:41:46.156Z,7.55
2022-12-18T03:44:35.762Z,8.10
2022-12-18T03:47:34.575Z,7.20
2022-12-18T03:50:16.064Z,8.48
2022-12-18T03:53:14.394Z,7.85
2022-12-18T03:55:43.566Z,8.50
2022-12-18T03:58:18.479Z,8.73
2022-12-18T04:01:10.871Z,7.78
2022-12-18T04:03:39.177Z,7.32
2022-12-18T04:06:08.817Z,8.30
2022-12-18T04:08:40.940Z,8.23
2022-12-18T04:11:10.746Z,7.35
2022-12-18T04:13:40.267Z,8.00
2022-12-18T04:16:13.560Z,7.13
2022-12-18T04:18:43.842Z,7.35
2022-12-18T04:21:11.276Z,8.52
2022-12-18T04:23:39.128Z,7.15
2022-12-18T04:26:07.482Z,8.05
2022-12-18T04:28:52.518Z,8.15
2022-12-18T04:31:19.692Z,8.20
2022-12-18T04:33:47.983Z,7.72
2022-12-18T04:36:15.870Z,7.38
2022-12-18T04:38:45.121Z,7.60
2022-12-18T04:41:15.841Z,8.23
2022-12-18T04:43:46.516Z,7.20
2022-12-18T04:46:13.848Z,8.65
2022-12-18T04:48:41.813Z,8.10
2022-12-18T04:51:08.919Z,7.93
2022-12-18T04:53:36.209Z,8.25
2022-12-18T04:56:04.588Z,7.65
2022-12-18T04:58:31.809Z,8.27
2022-12-18T05:00:59.120Z,8.43
2022-12-18T05:03:26.349Z,7.93
2022-12-18T05:05:53.976Z,7.70
2022-12-18T05:08:21.105Z,8.30
2022-12-18T05:10:48.262Z,7.90
2022-12-18T05:13:15.447Z,8.18
2022-12-18T05:15:42.895Z,7.97
2022-12-18T05:18:10.187Z,7.60
2022-12-18T05:20:37.523Z,8.75
2022-12-18T05:23:04.642Z,8.35
2022-12-18T05:25:31.770Z,7.90
2022-12-18T05:27:58.910Z,9.05
2022-12-18T05:30:26.925Z,10.10
2022-12-18T05:32:54.628Z,10.50
2022-12-18T05:35:22.581Z,9.45
2022-12-18T05:37:49.733Z,8.90
2022-12-18T05:40:16.920Z,8.68
2022-12-18T05:42:44.013Z,8.77
2022-12-18T05:45:11.283Z,8.43
2022-12-18T05:47:38.379Z,8.23
2022-12-18T05:50:06.122Z,7.35
2022-12-18T05:52:33.217Z,7.25
2022-12-18T05:55:00.365Z,8.07
2022-12-18T05:57:27.550Z,7.90
2022-12-18T05:59:54.683Z,8.40
2022-12-18T06:02:22.116Z,8.32
2022-12-18T06:04:49.337Z,8.30
2022-12-18T06:07:16.465Z,7.63
2022-12-18T06:09:43.567Z,8.48
2022-12-18T06:12:11.600Z,8.65
2022-12-18T06:14:38.891Z,8.20
2022-12-18T06:17:06.011Z,8.70
2022-12-18T06:19:33.162Z,9.23
2022-12-18T06:22:00.739Z,8.45
2022-12-18T06:24:27.857Z,8.07
2022-12-18T06:26:54.979Z,8.35
2022-12-18T06:29:22.104Z,8.68
2022-12-18T06:31:49.287Z,8.15
2022-12-18T06:34:16.420Z,8.02
2022-12-18T06:36:43.528Z,8.20
2022-12-18T06:39:10.684Z,8.52
2022-12-18T06:41:37.847Z,6.78
2022-12-18T06:44:05.031Z,8.20
2022-12-18T06:46:33.158Z,8.27
2022-12-18T06:49:00.227Z,7.85
2022-12-18T06:51:27.548Z,8.73
2022-12-18T06:53:54.670Z,7.38
2022-12-18T06:56:21.929Z,8.35
2022-12-18T06:58:51.882Z,8.50
2022-12-18T07:01:19.207Z,9.32
2022-12-18T07:03:46.510Z,9.50
2022-12-18T07:06:18.815Z,7.75
2022-12-18T07:08:47.041Z,9.00
2022-12-18T07:11:14.614Z,8.57
2022-12-18T07:13:42.235Z,7.80
2022-12-18T07:16:20.789Z,8.98
2022-12-18T07:18:51.277Z,8.82
2022-12-18T07:21:20.365Z,8.35
2022-12-18T07:23:49.086Z,8.75
2022-12-18T07:26:19.131Z,8.32
2022-12-18T07:28:47.010Z,8.40
2022-12-18T07:31:18.422Z,8.50
2022-12-18T07:33:46.816Z,7.82
2022-12-18T07:36:14.716Z,9.23
2022-12-18T07:38:42.426Z,8.43
2022-12-18T07:41:12.522Z,8.00
2022-12-18T07:43:41.788Z,7.85
2022-12-18T07:46:10.720Z,8.88
2022-12-18T07:48:45.384Z,8.55
2022-12-18T07:51:17.541Z,8.32
2022-12-18T07:53:45.849Z,7.47
2022-12-18T07:56:31.265Z,8.25
2022-12-18T07:59:00.193Z,7.38
2022-12-18T08:01:27.808Z,8.32
2022-12-18T08:03:55.139Z,7.93
2022-12-18T08:06:24.009Z,7.55
2022-12-18T08:08:56.369Z,8.18
2022-12-18T08:11:25.766Z,9.07
2022-12-18T08:13:53.014Z,8.15
2022-12-18T08:16:22.176Z,8.05
2022-12-18T08:18:49.456Z,9.18
2022-12-18T08:21:20.415Z,8.90
2022-12-18T08:23:49.052Z,8.95
2022-12-18T08:26:17.298Z,9.52
2022-12-18T08:28:45.078Z,8.88
2022-12-18T08:31:12.232Z,9.45
2022-12-18T08:33:40.598Z,10.32
2022-12-18T08:36:10.372Z,9.38
2022-12-18T08:38:37.573Z,8.35
2022-12-18T08:41:07.664Z,8.35
2022-12-18T08:43:53.643Z,7.65
2022-12-18T08:46:22.802Z,7.13
2022-12-18T08:48:51.885Z,6.88
2022-12-18T08:51:20.161Z,7.35
2022-12-18T08:53:48.211Z,7.63
2022-12-18T08:56:17.664Z,7.28
2022-12-18T08:58:45.072Z,7.32
2022-12-18T09:01:13.622Z,7.03
2022-12-18T09:03:41.447Z,7.85
2022-12-18T09:06:09.464Z,7.20
2022-12-18T09:08:37.876Z,8.35
2022-12-18T09:11:05.396Z,7.85
2022-12-18T09:13:32.500Z,8.48
2022-12-18T09:15:59.611Z,6.97
2022-12-18T09:18:26.687Z,7.78
2022-12-18T09:20:54.061Z,7.38
2022-12-18T09:23:23.443Z,7.75
2022-12-18T09:25:50.526Z,7.13
2022-12-18T09:28:20.089Z,7.22
2022-12-18T09:30:49.894Z,7.18
2022-12-18T09:33:17.975Z,7.07
2022-12-18T09:35:46.465Z,7.60
2022-12-18T09:38:16.798Z,7.32
2022-12-18T09:40:49.634Z,7.45
2022-12-18T09:43:51.130Z,7.03
2022-12-18T09:46:26.320Z,6.75
2022-12-18T09:48:57.488Z,6.45
2022-12-18T09:51:31.629Z,7.15
2022-12-18T09:54:06.427Z,8.13
2022-12-18T09:56:37.779Z,13.02
2022-12-18T09:59:05.809Z,9.68
2022-12-18T10:01:41.744Z,6.65
2022-12-18T10:04:11.558Z,7.82
2022-12-18T10:06:47.841Z,8.35
2022-12-18T10:09:27.119Z,7.05
2022-12-18T10:12:22.204Z,7.82
2022-12-18T10:14:49.287Z,7.93
2022-12-18T10:17:25.458Z,8.85
2022-12-18T10:20:00.059Z,8.75
2022-12-18T10:22:51.161Z,7.72
2022-12-18T10:25:29.783Z,7.75
2022-12-18T10:28:11.025Z,7.82
2022-12-18T10:30:40.013Z,13.57
2022-12-18T10:33:11.582Z,17.95
2022-12-18T10:35:42.748Z,10.10
2022-12-18T10:38:12.658Z,7.68
2022-12-18T10:40:49.823Z,7.82
2022-12-18T10:43:22.325Z,6.95
2022-12-18T10:46:08.016Z,10.30
2022-12-18T10:48:48.392Z,8.35
2022-12-18T10:51:24.299Z,8.20
2022-12-18T10:54:06.380Z,8.45
2022-12-18T10:56:37.522Z,7.72
2022-12-18T10:59:07.854Z,8.93
2022-12-18T11:01:55.934Z,8.10
2022-12-18T11:04:26.156Z,8.00
2022-12-18T11:07:01.811Z,7.60
2022-12-18T11:09:32.740Z,8.35
2022-12-18T11:12:02.758Z,8.40
2022-12-18T11:14:47.150Z,7.88
2022-12-18T11:17:29.092Z,8.98
2022-12-18T11:19:59.306Z,8.68
2022-12-18T11:22:28.641Z,8.27
2022-12-18T11:25:32.168Z,8.27
2022-12-18T11:28:00.032Z,8.68
2022-12-18T11:30:33.156Z,8.00
2022-12-18T11:33:17.256Z,7.87
2022-12-18T11:38:20.207Z,7.72
2022-12-18T11:41:10.579Z,8.32
2022-12-18T11:43:53.855Z,7.45
2022-12-18T11:46:42.138Z,7.68
2022-12-18T11:49:27.586Z,8.63
2022-12-18T11:52:01.728Z,8.05
2022-12-18T11:54:28.876Z,8.70
2022-12-18T11:57:27.665Z,8.45
2022-12-18T12:00:04.761Z,7.82
2022-12-18T12:02:58.201Z,7.63
2022-12-18T12:05:50.940Z,8.57
2022-12-18T12:08:45.337Z,8.40
2022-12-18T12:11:44.028Z,8.30
2022-12-18T12:14:26.057Z,8.68
2022-12-18T12:17:02.407Z,9.02
2022-12-18T12:19:38.419Z,8.00
2022-12-18T12:22:28.912Z,8.02
2022-12-18T12:24:58.717Z,8.10
2022-12-18T12:27:34.780Z,8.25
2022-12-18T12:30:05.639Z,8.50
2022-12-18T12:32:53.664Z,7.35
2022-12-18T12:35:33.200Z,7.63
2022-12-18T12:38:12.446Z,8.20
2022-12-18T12:41:02.824Z,8.48
2022-12-18T12:43:49.557Z,7.85
2022-12-18T12:46:22.245Z,9.52
2022-12-18T12:48:57.540Z,8.57
2022-12-18T12:51:29.617Z,8.07
2022-12-18T12:53:59.068Z,7.32
2022-12-18T12:56:37.521Z,9.10
2022-12-18T12:59:13.771Z,7.78
2022-12-18T13:02:03.251Z,9.07
2022-12-18T13:05:24.442Z,8.38
2022-12-18T13:08:04.614Z,8.63
2022-12-18T13:10:37.261Z,9.40
2022-12-18T13:13:17.189Z,8.25
2022-12-18T13:16:09.065Z,8.82
2022-12-18T13:18:36.576Z,10.27
2022-12-18T13:21:31.512Z,8.93
2022-12-18T13:24:23.588Z,10.20
2022-12-18T13:26:50.715Z,10.27
2022-12-18T13:29:45.760Z,9.63
2022-12-18T13:32:22.813Z,10.13
2022-12-18T13:35:23.038Z,10.25
2022-12-18T13:37:56.285Z,10.13
2022-12-18T13:40:48.476Z,9.98
2022-12-18T13:43:18.548Z,10.15
2022-12-18T13:46:18.850Z,10.40
2022-12-18T13:49:02.748Z,10.75
2022-12-18T13:54:19.640Z,9.65
2022-12-18T13:56:49.085Z,10.07
2022-12-18T13:59:23.269Z,8.82
2022-12-18T14:01:56.424Z,8.55
2022-12-18T14:04:28.351Z,9.07
2022-12-18T14:07:02.243Z,9.23
2022-12-18T14:09:32.541Z,10.18
2022-12-18T14:12:19.683Z,8.93
2022-12-18T14:14:49.878Z,9.35
2022-12-18T14:17:20.773Z,10.60
2022-12-18T14:19:52.058Z,9.23
2022-12-18T14:22:22.076Z,9.30
2022-12-18T14:25:14.193Z,8.65
2022-12-18T14:27:51.182Z,10.98
2022-12-18T14:30:31.331Z,9.68
2022-12-18T14:33:03.292Z,10.70
2022-12-18T14:35:30.925Z,10.32
2022-12-18T14:38:16.706Z,11.20
2022-12-18T14:40:44.968Z,10.30
2022-12-18T14:43:12.494Z,9.55
2022-12-18T14:45:45.280Z,9.85
2022-12-18T14:48:12.453Z,9.82
2022-12-18T14:50:41.000Z,9.73
2022-12-18T14:53:21.109Z,10.30
2022-12-18T14:55:49.665Z,10.45
2022-12-18T14:58:18.688Z,9.45
2022-12-18T15:00:45.796Z,11.05
2022-12-18T15:03:19.595Z,12.52
2022-12-18T15:08:46.866Z,11.98
2022-12-18T15:11:35.692Z,10.30
2022-12-18T15:14:38.497Z,12.02
2022-12-18T15:17:15.904Z,13.20
2022-12-18T15:19:45.336Z,12.43
2022-12-18T15:22:19.947Z,12.55
2022-12-18T15:24:47.654Z,13.50
2022-12-18T15:27:47.412Z,13.63
2022-12-18T15:30:20.431Z,12.55
2022-12-18T15:32:48.068Z,12.48
2022-12-18T15:35:15.107Z,13.40
2022-12-18T15:37:43.393Z,13.73
2022-12-18T15:40:22.305Z,13.38
2022-12-18T15:43:10.385Z,13.38
2022-12-18T15:45:37.529Z,12.85
2022-12-18T15:48:31.180Z,14.05
2022-12-18T15:50:59.415Z,12.65
2022-12-18T15:53:31.267Z,14.50
2022-12-18T15:56:17.229Z,14.35
2022-12-18T15:58:44.308Z,14.70
2022-12-18T16:01:12.601Z,14.52
2022-12-18T16:03:40.215Z,17.10
2022-12-18T16:06:07.819Z,15.45
2022-12-18T16:08:34.989Z,14.27
2022-12-18T16:11:02.616Z,15.20
2022-12-18T16:13:29.797Z,14.95
2022-12-18T16:15:57.041Z,15.98
2022-12-18T16:18:24.173Z,14.05
2022-12-18T16:20:51.389Z,16.88
2022-12-18T16:23:18.486Z,15.10
2022-12-18T16:25:45.613Z,15.25
2022-12-18T16:28:12.708Z,15.30
2022-12-18T16:30:41.231Z,15.55
2022-12-18T16:33:10.646Z,16.17
2022-12-18T16:35:38.147Z,16.33
2022-12-18T16:38:05.407Z,15.63
2022-12-18T16:40:33.675Z,16.23
2022-12-18T16:43:00.790Z,15.57
2022-12-18T16:45:33.927Z,16.95
2022-12-18T16:48:01.086Z,18.45
2022-12-18T16:50:28.218Z,17.70
2022-12-18T16:52:55.329Z,16.75
2022-12-18T16:55:22.437Z,17.65
2022-12-18T16:57:49.513Z,18.88
2022-12-18T17:00:18.178Z,20.23
2022-12-18T17:02:45.408Z,19.83
2022-12-18T17:05:12.790Z,19.10
2022-12-18T17:07:39.927Z,18.98
2022-12-18T17:10:07.255Z,20.27
2022-12-18T17:12:34.349Z,21.02
2022-12-18T17:15:01.434Z,21.00
2022-12-18T17:17:28.572Z,20.42
2022-12-18T17:19:56.102Z,19.52
2022-12-18T17:22:23.345Z,21.40
2022-12-18T17:24:50.656Z,20.38
2022-12-18T17:27:17.781Z,20.63
2022-12-18T17:29:48.050Z,21.38
2022-12-18T17:32:16.965Z,22.27
2022-12-18T17:34:44.494Z,23.65
2022-12-18T17:37:11.739Z,23.80
2022-12-18T17:39:39.732Z,23.15
2022-12-18T17:42:06.904Z,24.35
2022-12-18T17:44:36.725Z,24.50
2022-12-18T17:47:04.101Z,22.83
2022-12-18T17:49:31.533Z,23.42
2022-12-18T17:51:58.648Z,25.20
2022-12-18T17:54:25.755Z,24.27
2022-12-18T17:56:52.839Z,22.55
2022-12-18T17:59:19.966Z,23.15
2022-12-18T18:01:47.266Z,25.20
2022-12-18T18:04:15.091Z,26.20
2022-12-18T18:06:42.374Z,25.02
2022-12-18T18:09:16.283Z,26.40
2022-12-18T18:12:03.386Z,23.40
2022-12-18T18:14:30.863Z,26.15
2022-12-18T18:16:58.754Z,26.13
2022-12-18T18:19:31.246Z,25.65
2022-12-18T18:21:58.435Z,24.10
2022-12-18T18:24:26.087Z,24.33
2022-12-18T18:26:56.497Z,23.08
2022-12-18T18:29:26.645Z,22.85
2022-12-18T18:31:54.443Z,21.30
2022-12-18T18:34:24.404Z,21.27
2022-12-18T18:36:52.115Z,20.92
2022-12-18T18:39:19.691Z,22.88
2022-12-18T18:41:48.555Z,21.83
2022-12-18T18:44:17.311Z,24.50
2022-12-18T18:46:45.065Z,24.92
2022-12-18T18:49:13.858Z,27.65
2022-12-18T18:51:42.119Z,25.38
2022-12-18T18:54:09.885Z,26.73
2022-12-18T18:57:11.341Z,27.45
2022-12-18T18:59:29.152Z,27.88
2022-12-18T19:02:00.658Z,26.98
2022-12-18T19:04:33.352Z,29.63
2022-12-18T19:07:00.931Z,28.40
2022-12-18T19:09:28.571Z,28.35
2022-12-18T19:12:15.007Z,26.55
2022-12-18T19:14:42.990Z,28.02
2022-12-18T19:17:10.712Z,27.80
2022-12-18T19:19:38.524Z,27.40
2022-12-18T19:22:05.996Z,27.73
2022-12-18T19:24:33.166Z,27.33
2022-12-18T19:27:00.283Z,26.58
2022-12-18T19:29:27.606Z,27.23
2022-12-18T19:31:54.785Z,29.85
2022-12-18T19:34:21.977Z,29.25
2022-12-18T19:36:49.099Z,26.10
2022-12-18T19:39:18.213Z,29.20
2022-12-18T19:41:47.539Z,28.45
2022-12-18T19:44:17.358Z,30.00
2022-12-18T19:46:46.170Z,29.92
2022-12-18T19:49:18.180Z,32.65
2022-12-18T19:51:45.663Z,31.60
2022-12-18T19:54:17.188Z,34.15
2022-12-18T19:56:45.836Z,37.50
2022-12-18T19:59:13.808Z,33.63
2022-12-18T20:01:41.446Z,31.23
2022-12-18T20:04:09.153Z,33.50
2022-12-18T20:06:46.427Z,33.15
2022-12-18T20:09:13.748Z,32.63
2022-12-18T20:11:41.939Z,32.47
2022-12-18T20:14:14.685Z,34.33
2022-12-18T20:16:49.482Z,35.33
2022-12-18T20:19:18.576Z,34.47
2022-12-18T20:21:46.081Z,35.13
2022-12-18T20:24:13.296Z,32.70
2022-12-18T20:26:40.610Z,36.08
2022-12-18T20:29:07.800Z,31.92
2022-12-18T20:31:34.966Z,34.55
2022-12-18T20:34:03.640Z,36.00
2022-12-18T20:36:34.103Z,34.80
2022-12-18T20:39:06.417Z,33.75
2022-12-18T20:41:37.885Z,34.13
2022-12-18T20:44:12.785Z,32.85
2022-12-18T20:46:57.909Z,36.20
2022-12-18T20:49:26.655Z,33.25
2022-12-18T20:51:56.235Z,34.15
2022-12-18T20:54:26.039Z,34.85
2022-12-18T20:56:53.345Z,32.83
2022-12-18T20:59:21.023Z,33.78
2022-12-18T21:01:49.520Z,36.22
2022-12-18T21:04:19.173Z,34.92
2022-12-18T21:06:53.050Z,34.25
2022-12-18T21:09:23.679Z,33.78
2022-12-18T21:12:14.182Z,34.45
2022-12-18T21:14:42.764Z,32.40
2022-12-18T21:17:10.581Z,32.28
2022-12-18T21:19:37.972Z,34.83
2022-12-18T21:22:05.577Z,35.95
2022-12-18T21:24:33.180Z,36.70
2022-12-18T21:27:00.492Z,35.10
2022-12-18T21:29:27.979Z,34.47
2022-12-18T21:31:55.222Z,34.90
2022-12-18T21:34:27.646Z,33.70
2022-12-18T21:36:57.233Z,31.13
2022-12-18T21:39:25.448Z,33.33
2022-12-18T21:42:11.372Z,32.88
2022-12-18T21:44:41.466Z,29.98
2022-12-18T21:47:21.537Z,33.88
2022-12-18T21:49:50.718Z,32.03
2022-12-18T21:52:18.119Z,30.30
2022-12-18T21:54:45.260Z,28.48
2022-12-18T21:57:13.426Z,29.45
2022-12-18T21:59:43.279Z,25.92
2022-12-18T22:02:19.869Z,26.10
2022-12-18T22:04:47.596Z,25.10
2022-12-18T22:07:16.379Z,25.15
2022-12-18T22:09:43.564Z,26.35
2022-12-18T22:12:13.502Z,27.48
2022-12-18T22:14:40.632Z,26.80
2022-12-18T22:17:07.716Z,26.00
2022-12-18T22:19:41.100Z,26.73
2022-12-18T22:22:10.125Z,28.88
2022-12-18T22:24:37.266Z,28.10
2022-12-18T22:27:04.351Z,28.73
2022-12-18T22:29:50.007Z,28.27
2022-12-18T22:32:17.841Z,29.17
2022-12-18T22:34:59.423Z,30.88
2022-12-18T22:37:30.552Z,31.55
2022-12-18T22:39:57.674Z,33.78
2022-12-18T22:42:25.236Z,29.38
2022-12-18T22:44:52.324Z,30.30
2022-12-18T22:47:19.425Z,29.42
2022-12-18T22:49:46.721Z,29.90
2022-12-18T22:52:13.865Z,30.75
2022-12-18T22:54:43.472Z,30.75
2022-12-18T22:57:10.620Z,30.70
2022-12-18T22:59:37.742Z,33.35
2022-12-18T23:02:05.326Z,31.02
2022-12-18T23:04:36.417Z,30.35
2022-12-18T23:07:05.175Z,32.50
2022-12-18T23:09:32.726Z,34.08
2022-12-18T23:12:00.253Z,34.85
2022-12-18T23:14:28.491Z,33.80
2022-12-18T23:16:56.372Z,30.50
2022-12-18T23:19:24.627Z,32.75
2022-12-18T23:21:51.808Z,34.47
2022-12-18T23:24:21.630Z,32.92
2022-12-18T23:26:48.714Z,34.55
2022-12-18T23:29:15.798Z,33.83
2022-12-18T23:31:42.948Z,33.30
2022-12-18T23:34:13.184Z,35.63
2022-12-18T23:36:45.502Z,37.13
2022-12-18T23:39:15.321Z,38.40
2022-12-18T23:41:55.987Z,35.05
2022-12-18T23:44:23.202Z,38.95
2022-12-18T23:46:50.378Z,34.45
2022-12-18T23:49:17.578Z,36.63
2022-12-18T23:51:44.669Z,37.80
2022-12-18T23:54:11.770Z,35.42
2022-12-18T23:56:38.965Z,36.63
2022-12-18T23:59:06.075Z,40.20
